createdAt,value
2022-11-08T00:02:01.943Z,5.90
2022-11-08T00:04:29.456Z,4.90
2022-11-08T00:06:56.575Z,5.80
2022-11-08T00:09:24.331Z,5.32
2022-11-08T00:11:52.899Z,6.25
2022-11-08T00:14:20.021Z,4.63
2022-11-08T00:16:47.145Z,5.20
2022-11-08T00:19:14.249Z,4.78
2022-11-08T00:21:41.362Z,3.75
2022-11-08T00:24:08.954Z,4.18
2022-11-08T00:26:36.051Z,5.07
2022-11-08T00:29:04.530Z,4.68
2022-11-08T00:31:31.630Z,4.53
2022-11-08T00:33:58.722Z,3.78
2022-11-08T00:36:25.979Z,5.50
2022-11-08T00:38:53.085Z,3.85
2022-11-08T00:41:20.192Z,4.18
2022-11-08T00:43:47.314Z,3.75
2022-11-08T00:46:15.799Z,3.92
2022-11-08T00:48:42.947Z,3.58
2022-11-08T00:51:12.052Z,4.03
2022-11-08T00:53:39.610Z,4.18
2022-11-08T00:56:09.828Z,4.13
2022-11-08T00:58:36.946Z,4.30
2022-11-08T01:01:09.736Z,3.92
2022-11-08T01:03:38.363Z,3.95
2022-11-08T01:06:07.278Z,3.33
2022-11-08T01:08:34.456Z,4.60
2022-11-08T01:11:04.231Z,3.47
2022-11-08T01:13:31.382Z,4.72
2022-11-08T01:15:58.833Z,3.78
2022-11-08T01:18:25.936Z,5.40
2022-11-08T01:20:54.337Z,4.05
2022-11-08T01:23:21.445Z,3.55
2022-11-08T01:25:48.773Z,3.05
2022-11-08T01:28:17.065Z,3.85
2022-11-08T01:30:44.850Z,4.60
2022-11-08T01:33:12.402Z,3.42
2022-11-08T01:35:40.501Z,3.95
2022-11-08T01:38:10.350Z,3.58
2022-11-08T01:40:42.766Z,3.20
2022-11-08T01:43:43.726Z,3.47
2022-11-08T01:46:39.560Z,3.65
2022-11-08T01:49:37.826Z,3.33
2022-11-08T01:52:22.838Z,4.13
2022-11-08T01:55:09.559Z,3.45
2022-11-08T01:57:44.043Z,3.92
2022-11-08T02:00:12.640Z,2.85
2022-11-08T02:03:01.924Z,3.40
2022-11-08T02:05:30.550Z,4.32
2022-11-08T02:08:02.223Z,3.05
2022-11-08T02:10:34.624Z,3.78
2022-11-08T02:13:04.999Z,3.58
2022-11-08T02:15:32.550Z,3.35
2022-11-08T02:18:00.240Z,2.90
2022-11-08T02:20:27.650Z,3.33
2022-11-08T02:23:00.664Z,3.35
2022-11-08T02:25:29.174Z,3.67
2022-11-08T02:27:56.285Z,2.63
2022-11-08T02:30:23.415Z,3.80
2022-11-08T02:32:50.527Z,3.45
2022-11-08T02:35:20.685Z,3.25
2022-11-08T02:41:17.046Z,3.20
2022-11-08T02:43:44.134Z,3.10
2022-11-08T02:46:11.252Z,3.63
2022-11-08T02:48:38.462Z,3.03
2022-11-08T02:51:05.814Z,2.47
2022-11-08T02:53:33.239Z,4.22
2022-11-08T02:56:00.347Z,2.75
2022-11-08T02:58:28.850Z,3.50
2022-11-08T03:00:55.985Z,3.50
2022-11-08T03:03:23.112Z,2.90
2022-11-08T03:05:50.204Z,2.65
2022-11-08T03:08:17.729Z,3.60
2022-11-08T03:10:45.353Z,3.05
2022-11-08T03:13:12.484Z,2.45
2022-11-08T03:15:41.092Z,2.20
2022-11-08T03:18:08.187Z,2.53
2022-11-08T03:20:35.287Z,2.85
2022-11-08T03:23:03.660Z,3.00
2022-11-08T03:25:30.990Z,2.92
2022-11-08T03:28:01.457Z,3.05
2022-11-08T03:30:28.587Z,2.15
2022-11-08T03:32:57.518Z,2.72
2022-11-08T03:35:24.845Z,2.67
2022-11-08T03:37:52.808Z,3.05
2022-11-08T03:40:20.554Z,3.10
2022-11-08T03:42:47.721Z,2.75
2022-11-08T03:45:15.405Z,1.92
2022-11-08T03:47:43.661Z,2.75
2022-11-08T03:50:13.007Z,2.55
2022-11-08T03:52:40.780Z,3.97
2022-11-08T03:55:09.090Z,2.75
2022-11-08T03:57:36.375Z,2.65
2022-11-08T04:00:05.321Z,2.30
2022-11-08T04:02:32.516Z,2.53
2022-11-08T04:04:59.800Z,2.40
2022-11-08T04:07:28.325Z,3.55
2022-11-08T04:09:55.516Z,3.63
2022-11-08T04:12:22.630Z,3.25
2022-11-08T04:14:49.913Z,2.78
2022-11-08T04:17:17.026Z,3.35
2022-11-08T04:19:44.103Z,3.33
2022-11-08T04:22:11.635Z,3.50
2022-11-08T04:24:40.111Z,4.70
2022-11-08T04:27:07.265Z,3.25
2022-11-08T04:29:34.370Z,2.75
2022-11-08T04:32:01.454Z,3.15
2022-11-08T04:34:28.659Z,2.22
2022-11-08T04:36:55.847Z,3.95
2022-11-08T04:39:22.935Z,3.50
2022-11-08T04:41:51.385Z,5.65
2022-11-08T04:44:18.507Z,7.18
2022-11-08T04:46:45.612Z,10.38
2022-11-08T04:49:12.703Z,11.95
2022-11-08T04:51:39.816Z,6.93
2022-11-08T04:54:06.920Z,7.43
2022-11-08T04:56:34.366Z,5.68
2022-11-08T04:59:02.890Z,4.30
2022-11-08T05:01:31.121Z,4.40
2022-11-08T05:03:58.397Z,5.78
2022-11-08T05:06:27.413Z,7.40
2022-11-08T05:08:55.808Z,6.35
2022-11-08T05:11:25.118Z,8.05
2022-11-08T05:13:52.527Z,14.85
2022-11-08T05:16:23.152Z,18.15
2022-11-08T05:18:50.515Z,9.35
2022-11-08T05:21:19.453Z,6.22
2022-11-08T05:23:47.730Z,8.02
2022-11-08T05:26:16.101Z,5.65
2022-11-08T05:28:43.569Z,8.05
2022-11-08T05:31:11.078Z,6.80
2022-11-08T05:33:39.545Z,7.18
2022-11-08T05:36:08.953Z,6.80
2022-11-08T05:38:36.437Z,3.20
2022-11-08T05:41:03.952Z,5.88
2022-11-08T05:43:31.726Z,5.10
2022-11-08T05:45:58.903Z,5.07
2022-11-08T05:48:26.130Z,5.53
2022-11-08T05:50:54.763Z,4.50
2022-11-08T05:53:21.945Z,4.20
2022-11-08T05:55:49.336Z,4.25
2022-11-08T05:58:16.447Z,3.92
2022-11-08T06:00:43.541Z,5.97
2022-11-08T06:03:10.717Z,6.13
2022-11-08T06:05:37.916Z,2.65
2022-11-08T06:08:06.374Z,3.35
2022-11-08T06:10:33.481Z,4.80
2022-11-08T06:13:00.853Z,4.03
2022-11-08T06:15:28.020Z,5.75
2022-11-08T06:17:55.194Z,4.65
2022-11-08T06:20:22.297Z,3.45
2022-11-08T06:22:49.398Z,5.53
2022-11-08T06:25:18.010Z,4.93
2022-11-08T06:27:45.230Z,7.50
2022-11-08T06:30:13.414Z,5.78
2022-11-08T06:32:40.690Z,5.00
2022-11-08T06:35:08.627Z,4.93
2022-11-08T06:37:35.714Z,5.03
2022-11-08T06:40:02.860Z,4.22
2022-11-08T06:42:31.365Z,5.03
2022-11-08T06:44:58.455Z,6.45
2022-11-08T06:47:25.636Z,7.22
2022-11-08T06:49:52.769Z,7.47
2022-11-08T06:52:19.861Z,6.70
2022-11-08T06:54:46.955Z,4.40
2022-11-08T06:57:14.069Z,9.68
2022-11-08T06:59:42.526Z,7.40
2022-11-08T07:02:10.388Z,10.57
2022-11-08T07:04:37.619Z,8.68
2022-11-08T07:07:04.746Z,12.73
2022-11-08T07:09:31.829Z,9.48
2022-11-08T07:11:58.931Z,8.85
2022-11-08T07:14:26.042Z,7.78
2022-11-08T07:16:54.533Z,12.13
2022-11-08T07:19:21.890Z,6.80
2022-11-08T07:21:48.980Z,9.20
2022-11-08T07:24:16.080Z,6.18
2022-11-08T07:26:43.221Z,5.03
2022-11-08T07:29:15.697Z,5.65
2022-11-08T07:31:43.286Z,6.00
2022-11-08T07:34:11.723Z,5.20
2022-11-08T07:36:38.812Z,7.65
2022-11-08T07:39:06.874Z,5.68
2022-11-08T07:41:34.256Z,5.30
2022-11-08T07:44:01.378Z,5.90
2022-11-08T07:46:28.486Z,5.15
2022-11-08T07:48:55.619Z,7.22
2022-11-08T07:51:24.061Z,7.05
2022-11-08T07:53:51.223Z,6.05
2022-11-08T07:56:18.335Z,6.32
2022-11-08T07:58:45.478Z,7.03
2022-11-08T08:01:12.603Z,6.60
2022-11-08T08:03:39.733Z,4.18
2022-11-08T08:06:06.818Z,4.22
2022-11-08T08:08:35.399Z,4.15
2022-11-08T08:11:02.780Z,4.00
2022-11-08T08:13:29.920Z,5.05
2022-11-08T08:15:58.003Z,5.90
2022-11-08T08:18:25.141Z,4.95
2022-11-08T08:20:52.370Z,4.78
2022-11-08T08:23:19.951Z,5.60
2022-11-08T08:25:48.586Z,4.18
2022-11-08T08:28:15.695Z,4.68
2022-11-08T08:30:42.848Z,3.88
2022-11-08T08:33:34.506Z,4.35
2022-11-08T08:36:01.535Z,5.32
2022-11-08T08:38:29.301Z,5.63
2022-11-08T08:40:58.588Z,5.85
2022-11-08T08:43:25.795Z,4.72
2022-11-08T08:45:53.033Z,4.28
2022-11-08T08:48:20.981Z,4.75
2022-11-08T08:50:48.080Z,4.00
2022-11-08T08:53:15.347Z,3.67
2022-11-08T08:55:42.823Z,4.15
2022-11-08T08:58:11.622Z,4.03
2022-11-08T09:03:25.881Z,4.82
2022-11-08T09:05:53.001Z,4.63
2022-11-08T09:08:20.127Z,3.15
2022-11-08T09:10:52.985Z,3.40
2022-11-08T09:13:21.623Z,5.80
2022-11-08T09:15:48.726Z,5.10
2022-11-08T09:18:15.865Z,4.18
2022-11-08T09:20:42.989Z,3.78
2022-11-08T09:23:10.986Z,3.00
2022-11-08T09:25:38.477Z,4.68
2022-11-08T09:28:06.286Z,3.95
2022-11-08T09:30:34.785Z,4.78
2022-11-08T09:33:02.655Z,3.92
2022-11-08T09:35:30.866Z,5.10
2022-11-08T09:37:58.673Z,3.97
2022-11-08T09:40:31.878Z,4.05
2022-11-08T09:43:12.711Z,3.40
2022-11-08T09:45:44.346Z,4.03
2022-11-08T09:48:22.658Z,4.30
2022-11-08T09:50:52.116Z,3.53
2022-11-08T09:53:27.042Z,4.18
2022-11-08T09:55:58.618Z,3.72
2022-11-08T09:58:33.689Z,3.65
2022-11-08T10:01:02.929Z,4.80
2022-11-08T10:03:30.579Z,4.13
2022-11-08T10:06:27.679Z,3.92
2022-11-08T10:09:02.288Z,3.50
2022-11-08T10:11:45.865Z,3.42
2022-11-08T10:14:28.230Z,5.20
2022-11-08T10:17:13.351Z,3.72
2022-11-08T10:19:56.071Z,3.58
2022-11-08T10:22:31.803Z,3.85
2022-11-08T10:25:01.580Z,4.00
2022-11-08T10:27:34.590Z,4.35
2022-11-08T10:30:09.817Z,3.03
2022-11-08T10:32:38.362Z,4.03
2022-11-08T10:35:18.587Z,4.57
2022-11-08T10:37:50.781Z,4.70
2022-11-08T10:40:25.180Z,3.67
2022-11-08T10:42:59.573Z,3.00
2022-11-08T10:45:26.709Z,4.82
2022-11-08T10:47:55.347Z,4.20
2022-11-08T10:50:35.299Z,3.58
2022-11-08T10:53:03.805Z,3.45
2022-11-08T10:55:32.865Z,3.30
2022-11-08T10:58:00.596Z,2.50
2022-11-08T11:00:30.245Z,5.07
2022-11-08T11:03:00.642Z,2.95
2022-11-08T11:05:31.653Z,3.90
2022-11-08T11:08:15.400Z,3.90
2022-11-08T11:10:45.369Z,3.70
2022-11-08T11:13:14.394Z,2.83
2022-11-08T11:15:47.125Z,3.53
2022-11-08T11:18:24.535Z,3.00
2022-11-08T11:21:14.884Z,3.47
2022-11-08T11:23:45.111Z,3.50
2022-11-08T11:26:27.375Z,3.50
2022-11-08T11:29:16.788Z,4.22
2022-11-08T11:31:45.783Z,2.50
2022-11-08T11:34:31.815Z,3.10
2022-11-08T11:37:05.567Z,3.95
2022-11-08T11:39:39.104Z,3.50
2022-11-08T11:42:39.192Z,4.07
2022-11-08T11:45:10.974Z,4.00
2022-11-08T11:47:44.535Z,2.78
2022-11-08T11:50:22.954Z,3.38
2022-11-08T11:52:50.078Z,3.15
2022-11-08T11:55:17.735Z,2.60
2022-11-08T11:58:00.267Z,3.88
2022-11-08T12:00:27.477Z,3.28
2022-11-08T12:03:11.168Z,2.95
2022-11-08T12:05:54.551Z,2.88
2022-11-08T12:08:30.598Z,3.03
2022-11-08T12:11:18.317Z,2.50
2022-11-08T12:14:01.871Z,2.95
2022-11-08T12:16:35.991Z,3.20
2022-11-08T12:21:58.839Z,2.80
2022-11-08T12:24:39.519Z,2.13
2022-11-08T12:27:19.656Z,2.75
2022-11-08T12:29:57.504Z,2.75
2022-11-08T12:32:46.063Z,2.00
2022-11-08T12:35:24.199Z,2.90
2022-11-08T12:38:06.200Z,2.78
2022-11-08T12:40:42.664Z,2.58
2022-11-08T12:43:24.057Z,2.72
2022-11-08T12:46:00.593Z,2.78
2022-11-08T12:48:43.857Z,2.30
2022-11-08T12:51:22.510Z,2.75
2022-11-08T12:54:14.548Z,2.80
2022-11-08T12:56:44.563Z,2.22
2022-11-08T12:59:19.519Z,3.13
2022-11-08T13:01:47.364Z,2.50
2022-11-08T13:04:25.923Z,2.42
2022-11-08T13:07:00.323Z,3.40
2022-11-08T13:09:37.438Z,2.75
2022-11-08T13:12:21.489Z,3.45
2022-11-08T13:14:48.990Z,2.85
2022-11-08T13:17:19.774Z,2.88
2022-11-08T13:20:03.654Z,2.20
2022-11-08T13:22:56.842Z,2.80
2022-11-08T13:25:39.436Z,2.70
2022-11-08T13:28:41.222Z,2.67
2022-11-08T13:31:18.348Z,3.70
2022-11-08T13:33:56.295Z,3.13
2022-11-08T13:36:35.651Z,3.28
2022-11-08T13:39:21.733Z,3.78
2022-11-08T13:42:05.192Z,2.50
2022-11-08T13:44:58.779Z,2.42
2022-11-08T13:47:51.842Z,3.28
2022-11-08T13:50:53.962Z,2.45
2022-11-08T13:53:47.425Z,3.13
2022-11-08T13:56:25.763Z,3.63
2022-11-08T13:58:54.281Z,3.47
2022-11-08T14:01:54.907Z,3.35
2022-11-08T14:04:24.858Z,2.55
2022-11-08T14:07:01.033Z,2.30
2022-11-08T14:09:39.127Z,2.63
2022-11-08T14:12:14.681Z,2.97
2022-11-08T14:14:52.217Z,3.28
2022-11-08T14:17:31.623Z,2.63
2022-11-08T14:20:16.567Z,3.13
2022-11-08T14:22:48.882Z,2.65
2022-11-08T14:25:29.334Z,2.60
2022-11-08T14:27:57.874Z,2.92
2022-11-08T14:30:26.671Z,2.40
2022-11-08T14:33:08.020Z,2.88
2022-11-08T14:35:35.256Z,2.88
2022-11-08T14:38:03.194Z,2.28
2022-11-08T14:40:30.442Z,2.40
2022-11-08T14:42:57.628Z,4.25
2022-11-08T14:45:28.913Z,2.65
2022-11-08T14:48:02.675Z,3.60
2022-11-08T14:50:31.435Z,2.47
2022-11-08T14:53:23.458Z,2.97
2022-11-08T14:56:02.025Z,2.53
2022-11-08T14:58:30.131Z,3.58
2022-11-08T15:01:01.173Z,3.17
2022-11-08T15:03:31.821Z,3.28
2022-11-08T15:06:00.962Z,3.05
2022-11-08T15:08:31.278Z,2.80
2022-11-08T15:11:02.186Z,2.72
2022-11-08T15:13:32.838Z,2.45
2022-11-08T15:16:04.790Z,2.35
2022-11-08T15:18:35.482Z,2.78
2022-11-08T15:21:05.125Z,2.53
2022-11-08T15:23:40.409Z,2.75
2022-11-08T15:26:18.555Z,2.90
2022-11-08T15:28:55.087Z,2.42
2022-11-08T15:31:26.696Z,3.22
2022-11-08T15:33:54.214Z,3.80
2022-11-08T15:36:27.322Z,3.97
2022-11-08T15:38:54.455Z,3.72
2022-11-08T15:41:35.076Z,3.85
2022-11-08T15:44:19.227Z,2.35
2022-11-08T15:46:48.175Z,7.50
2022-11-08T15:49:17.669Z,2.22
2022-11-08T15:51:45.195Z,3.30
2022-11-08T15:54:13.045Z,4.30
2022-11-08T15:56:40.839Z,3.10
2022-11-08T15:59:16.287Z,3.42
2022-11-08T16:01:53.438Z,4.22
2022-11-08T16:04:20.674Z,5.75
2022-11-08T16:06:47.814Z,3.05
2022-11-08T16:09:15.233Z,3.22
2022-11-08T16:11:43.267Z,3.63
2022-11-08T16:14:15.869Z,6.05
2022-11-08T16:16:43.000Z,4.55
2022-11-08T16:19:17.563Z,4.65
2022-11-08T16:21:44.731Z,7.05
2022-11-08T16:24:11.817Z,4.97
2022-11-08T16:26:40.431Z,3.97
2022-11-08T16:29:16.379Z,3.40
2022-11-08T16:31:43.538Z,4.75
2022-11-08T16:34:11.208Z,4.40
2022-11-08T16:36:39.782Z,4.47
2022-11-08T16:39:13.778Z,3.67
2022-11-08T16:41:42.882Z,6.95
2022-11-08T16:44:11.050Z,4.85
2022-11-08T16:46:38.593Z,4.40
2022-11-08T16:49:06.786Z,3.45
2022-11-08T16:51:33.950Z,7.55
2022-11-08T16:54:02.976Z,3.80
2022-11-08T16:56:30.116Z,4.45
2022-11-08T16:58:57.210Z,3.88
2022-11-08T17:01:30.984Z,4.40
2022-11-08T17:03:58.125Z,5.82
2022-11-08T17:06:25.251Z,5.82
2022-11-08T17:08:52.379Z,4.68
2022-11-08T17:11:22.664Z,5.95
2022-11-08T17:13:50.062Z,4.10
2022-11-08T17:16:17.315Z,4.72
2022-11-08T17:18:47.451Z,5.13
2022-11-08T17:21:43.048Z,4.93
2022-11-08T17:24:04.607Z,3.55
2022-11-08T17:26:33.054Z,4.20
2022-11-08T17:29:00.150Z,4.10
2022-11-08T17:31:27.269Z,4.50
2022-11-08T17:33:54.450Z,3.50
2022-11-08T17:36:21.571Z,3.85
2022-11-08T17:38:48.797Z,3.92
2022-11-08T17:41:15.945Z,5.13
2022-11-08T17:43:44.606Z,5.70
2022-11-08T17:46:12.169Z,4.25
2022-11-08T17:48:39.983Z,2.88
2022-11-08T17:51:07.895Z,4.53
2022-11-08T17:53:35.546Z,3.40
2022-11-08T17:56:05.123Z,3.85
2022-11-08T17:58:32.634Z,4.47
2022-11-08T18:01:02.679Z,4.05
2022-11-08T18:03:29.955Z,3.55
2022-11-08T18:05:59.267Z,4.47
2022-11-08T18:08:28.474Z,5.35
2022-11-08T18:10:56.272Z,3.30
2022-11-08T18:13:26.774Z,5.78
2022-11-08T18:15:54.214Z,5.90
2022-11-08T18:18:22.695Z,4.78
2022-11-08T18:20:53.477Z,4.05
2022-11-08T18:23:21.216Z,5.38
2022-11-08T18:25:49.833Z,5.45
2022-11-08T18:28:17.500Z,6.93
2022-11-08T18:30:47.772Z,4.65
2022-11-08T18:33:15.040Z,5.10
2022-11-08T18:35:44.058Z,5.38
2022-11-08T18:38:11.503Z,4.13
2022-11-08T18:40:39.009Z,5.20
2022-11-08T18:43:06.702Z,6.30
2022-11-08T18:45:33.922Z,4.53
2022-11-08T18:48:01.012Z,5.07
2022-11-08T18:50:28.123Z,3.90
2022-11-08T18:53:00.881Z,7.43
2022-11-08T18:55:30.910Z,5.05
2022-11-08T18:57:58.036Z,4.18
2022-11-08T19:00:25.342Z,7.32
2022-11-08T19:02:52.460Z,5.50
2022-11-08T19:05:19.959Z,6.85
2022-11-08T19:07:47.419Z,4.60
2022-11-08T19:10:16.242Z,5.00
2022-11-08T19:12:43.469Z,4.88
2022-11-08T19:15:10.691Z,5.85
2022-11-08T19:17:37.869Z,5.13
2022-11-08T19:20:05.935Z,5.80
2022-11-08T19:22:33.033Z,5.90
2022-11-08T19:25:00.188Z,6.00
2022-11-08T19:27:28.698Z,6.05
2022-11-08T19:29:55.814Z,4.10
2022-11-08T19:32:22.910Z,7.55
2022-11-08T19:34:50.116Z,6.18
2022-11-08T19:37:17.216Z,4.40
2022-11-08T19:39:44.296Z,5.00
2022-11-08T19:42:11.407Z,5.07
2022-11-08T19:44:39.955Z,5.55
2022-11-08T19:47:07.063Z,5.22
2022-11-08T19:49:34.202Z,4.63
2022-11-08T19:52:01.307Z,4.40
2022-11-08T19:54:28.702Z,5.72
2022-11-08T19:57:04.717Z,5.47
2022-11-08T19:59:32.756Z,4.85
2022-11-08T20:02:01.278Z,4.50
2022-11-08T20:04:28.439Z,5.25
2022-11-08T20:06:55.635Z,4.97
2022-11-08T20:09:27.412Z,4.35
2022-11-08T20:11:57.254Z,3.85
2022-11-08T20:14:24.589Z,5.38
2022-11-08T20:16:53.698Z,4.60
2022-11-08T20:19:22.375Z,4.78
2022-11-08T20:21:49.958Z,5.60
2022-11-08T20:24:17.066Z,9.55
2022-11-08T20:26:44.212Z,4.78
2022-11-08T20:29:11.571Z,4.85
2022-11-08T20:31:39.318Z,4.20
2022-11-08T20:34:07.191Z,4.40
2022-11-08T20:36:36.107Z,5.07
2022-11-08T20:39:06.811Z,6.10
2022-11-08T20:41:35.439Z,4.32
2022-11-08T20:44:02.867Z,5.43
2022-11-08T20:46:29.973Z,4.05
2022-11-08T20:49:01.195Z,4.60
2022-11-08T20:51:30.299Z,4.65
2022-11-08T20:53:59.856Z,4.30
2022-11-08T20:56:27.589Z,6.15
2022-11-08T20:58:54.878Z,3.90
2022-11-08T21:01:23.800Z,5.03
2022-11-08T21:03:51.419Z,5.22
2022-11-08T21:06:19.714Z,4.40
2022-11-08T21:09:16.537Z,6.20
2022-11-08T21:11:35.460Z,5.13
2022-11-08T21:14:02.716Z,5.70
2022-11-08T21:16:35.022Z,4.78
2022-11-08T21:19:06.211Z,3.95
2022-11-08T21:21:33.375Z,3.55
2022-11-08T21:24:00.481Z,5.32
2022-11-08T21:26:27.598Z,8.32
2022-11-08T21:28:56.047Z,4.68
2022-11-08T21:31:23.126Z,5.50
2022-11-08T21:33:50.230Z,5.47
2022-11-08T21:36:17.486Z,3.78
2022-11-08T21:38:44.681Z,4.50
2022-11-08T21:41:12.017Z,5.13
2022-11-08T21:43:41.371Z,3.70
2022-11-08T21:46:15.119Z,4.47
2022-11-08T21:48:42.501Z,4.38
2022-11-08T21:51:09.795Z,4.45
2022-11-08T21:53:45.125Z,4.30
2022-11-08T21:56:16.686Z,3.55
2022-11-08T21:58:43.816Z,4.90
2022-11-08T22:01:10.938Z,6.15
2022-11-08T22:03:39.459Z,4.65
2022-11-08T22:06:07.043Z,4.40
2022-11-08T22:08:34.270Z,3.75
2022-11-08T22:11:01.368Z,5.60
2022-11-08T22:13:28.483Z,3.85
2022-11-08T22:15:55.649Z,6.05
2022-11-08T22:18:36.764Z,4.43
2022-11-08T22:21:11.143Z,4.03
2022-11-08T22:23:38.242Z,5.25
2022-11-08T22:26:05.657Z,4.15
2022-11-08T22:28:32.751Z,4.20
2022-11-08T22:30:59.841Z,5.65
2022-11-08T22:33:26.930Z,3.88
2022-11-08T22:35:54.052Z,4.75
2022-11-08T22:38:22.517Z,4.97
2022-11-08T22:40:49.635Z,4.28
2022-11-08T22:43:16.739Z,4.68
2022-11-08T22:45:44.064Z,4.28
2022-11-08T22:48:11.318Z,4.32
2022-11-08T22:50:38.510Z,5.75
2022-11-08T22:53:05.934Z,4.60
2022-11-08T22:55:34.878Z,4.57
2022-11-08T22:58:02.105Z,4.45
2022-11-08T23:00:29.365Z,4.57
2022-11-08T23:02:56.726Z,3.95
2022-11-08T23:05:24.094Z,4.15
2022-11-08T23:07:51.168Z,3.10
2022-11-08T23:10:18.497Z,4.00
2022-11-08T23:12:46.935Z,4.18
2022-11-08T23:15:14.154Z,4.40
2022-11-08T23:17:41.227Z,3.90
2022-11-08T23:20:09.141Z,4.07
2022-11-08T23:22:36.220Z,4.85
2022-11-08T23:25:04.930Z,3.53
2022-11-08T23:27:32.146Z,4.55
2022-11-08T23:30:00.590Z,3.67
2022-11-08T23:32:28.058Z,2.72
2022-11-08T23:34:55.270Z,4.78
2022-11-08T23:37:22.361Z,3.97
2022-11-08T23:39:49.446Z,4.95
2022-11-08T23:42:16.544Z,4.00
2022-11-08T23:44:43.624Z,4.47
2022-11-08T23:47:12.051Z,4.15
2022-11-08T23:49:39.160Z,5.40
2022-11-08T23:52:06.243Z,3.88
2022-11-08T23:54:33.347Z,3.78
2022-11-08T23:57:00.476Z,2.95
2022-11-08T23:59:27.549Z,4.78
